sensor_id;sensor_type;location;lat;lon;timestamp;pressure;altitude;pressure_sealevel;temperature;humidity
29163;BME280;20331;53.144;8.208;2023-03-01T00:08:27;103433.31;;;2.31;82.14
29163;BME280;20331;53.144;8.208;2023-03-01T00:18:49;103422.03;;;2.27;82.61
29163;BME280;20331;53.144;8.208;2023-03-01T00:29:11;103399.34;;;2.14;82.73
29163;BME280;20331;53.144;8.208;2023-03-01T00:39:33;103408.72;;;2.15;83.04
29163;BME280;20331;53.144;8.208;2023-03-01T00:49:54;103402.31;;;2.05;82.95
29163;BME280;20331;53.144;8.208;2023-03-01T01:00:15;103406.63;;;2.07;82.69
29163;BME280;20331;53.144;8.208;2023-03-01T01:10:37;103391.75;;;1.98;83.27
29163;BME280;20331;53.144;8.208;2023-03-01T01:21:03;103382.28;;;1.95;83.44
29163;BME280;20331;53.144;8.208;2023-03-01T01:31:25;103381.13;;;1.89;83.07
29163;BME280;20331;53.144;8.208;2023-03-01T01:41:47;103369.03;;;1.85;83.36
29163;BME280;20331;53.144;8.208;2023-03-01T01:52:16;103354.31;;;1.79;83.94
29163;BME280;20331;53.144;8.208;2023-03-01T02:02:38;103335.94;;;1.69;83.81
29163;BME280;20331;53.144;8.208;2023-03-01T02:13:02;103329.09;;;1.68;83.83
29163;BME280;20331;53.144;8.208;2023-03-01T02:23:24;103315.94;;;1.59;83.12
29163;BME280;20331;53.144;8.208;2023-03-01T02:33:46;103318.47;;;1.59;83.20
29163;BME280;20331;53.144;8.208;2023-03-01T02:44:09;103321.97;;;1.61;84.27
29163;BME280;20331;53.144;8.208;2023-03-01T03:15:27;103324.25;;;1.37;82.47
29163;BME280;20331;53.144;8.208;2023-03-01T03:25:50;103318.78;;;1.30;82.29
29163;BME280;20331;53.144;8.208;2023-03-01T03:36:15;103308.16;;;1.21;83.14
29163;BME280;20331;53.144;8.208;2023-03-01T03:46:38;103289.34;;;1.19;82.34
29163;BME280;20331;53.144;8.208;2023-03-01T03:57:00;103290.78;;;1.14;83.34
29163;BME280;20331;53.144;8.208;2023-03-01T04:07:21;103286.75;;;1.17;83.54
29163;BME280;20331;53.144;8.208;2023-03-01T04:17:43;103268.66;;;1.13;83.03
29163;BME280;20331;53.144;8.208;2023-03-01T04:28:05;103278.72;;;1.10;83.15
29163;BME280;20331;53.144;8.208;2023-03-01T04:38:27;103266.50;;;1.02;82.98
29163;BME280;20331;53.144;8.208;2023-03-01T04:48:48;103269.50;;;0.95;83.05
29163;BME280;20331;53.144;8.208;2023-03-01T04:59:10;103262.06;;;0.82;82.72
29163;BME280;20331;53.144;8.208;2023-03-01T05:09:33;103262.88;;;0.81;83.61
29163;BME280;20331;53.144;8.208;2023-03-01T05:19:55;103250.00;;;0.78;83.83
29163;BME280;20331;53.144;8.208;2023-03-01T05:30:17;103242.88;;;0.71;83.02
29163;BME280;20331;53.144;8.208;2023-03-01T05:40:38;103239.84;;;0.62;82.87
29163;BME280;20331;53.144;8.208;2023-03-01T05:51:00;103241.38;;;0.59;83.13
29163;BME280;20331;53.144;8.208;2023-03-01T06:01:21;103239.63;;;0.58;82.84
29163;BME280;20331;53.144;8.208;2023-03-01T06:11:43;103247.34;;;0.59;82.87
29163;BME280;20331;53.144;8.208;2023-03-01T06:22:05;103252.50;;;0.61;83.84
29163;BME280;20331;53.144;8.208;2023-03-01T06:32:26;103253.00;;;0.54;83.23
29163;BME280;20331;53.144;8.208;2023-03-01T06:42:48;103262.50;;;0.56;83.10
29163;BME280;20331;53.144;8.208;2023-03-01T06:53:10;103259.31;;;0.60;83.39
29163;BME280;20331;53.144;8.208;2023-03-01T07:03:32;103273.13;;;0.65;83.59
29163;BME280;20331;53.144;8.208;2023-03-01T07:13:53;103268.19;;;0.68;84.95
29163;BME280;20331;53.144;8.208;2023-03-01T07:24:15;103285.00;;;0.82;84.75
29163;BME280;20331;53.144;8.208;2023-03-01T07:34:36;103288.31;;;0.97;85.91
29163;BME280;20331;53.144;8.208;2023-03-01T07:44:58;103285.84;;;1.17;84.99
29163;BME280;20331;53.144;8.208;2023-03-01T07:55:19;103276.22;;;1.46;84.54
29163;BME280;20331;53.144;8.208;2023-03-01T08:05:41;103277.91;;;1.65;83.66
29163;BME280;20331;53.144;8.208;2023-03-01T08:16:03;103266.06;;;1.84;83.14
29163;BME280;20331;53.144;8.208;2023-03-01T08:26:25;103249.63;;;1.97;83.32
29163;BME280;20331;53.144;8.208;2023-03-01T08:36:46;103247.06;;;1.97;82.73
29163;BME280;20331;53.144;8.208;2023-03-01T08:47:07;103239.25;;;2.13;80.84
29163;BME280;20331;53.144;8.208;2023-03-01T08:57:29;103229.88;;;2.33;81.48
29163;BME280;20331;53.144;8.208;2023-03-01T09:07:50;103234.22;;;2.54;80.19
29163;BME280;20331;53.144;8.208;2023-03-01T09:18:12;103230.09;;;2.78;79.60
29163;BME280;20331;53.144;8.208;2023-03-01T09:28:33;103225.97;;;3.02;79.11
29163;BME280;20331;53.144;8.208;2023-03-01T09:38:54;103232.72;;;3.23;78.33
29163;BME280;20331;53.144;8.208;2023-03-01T09:49:23;103224.94;;;3.42;77.22
29163;BME280;20331;53.144;8.208;2023-03-01T09:59:59;103213.75;;;3.62;73.74
29163;BME280;20331;53.144;8.208;2023-03-01T10:10:32;103218.94;;;3.87;73.38
29163;BME280;20331;53.144;8.208;2023-03-01T10:21:14;103199.88;;;4.02;73.30
29163;BME280;20331;53.144;8.208;2023-03-01T10:31:42;103203.22;;;4.25;71.36
29163;BME280;20331;53.144;8.208;2023-03-01T10:42:05;103198.69;;;4.43;71.52
29163;BME280;20331;53.144;8.208;2023-03-01T10:52:29;103192.53;;;4.63;71.16
29163;BME280;20331;53.144;8.208;2023-03-01T11:03:01;103188.19;;;4.87;71.59
29163;BME280;20331;53.144;8.208;2023-03-01T11:13:23;103185.28;;;5.03;72.08
29163;BME280;20331;53.144;8.208;2023-03-01T11:23:45;103178.97;;;5.21;72.53
29163;BME280;20331;53.144;8.208;2023-03-01T11:34:11;103172.63;;;5.38;71.46
29163;BME280;20331;53.144;8.208;2023-03-01T11:44:33;103149.06;;;5.51;73.05
29163;BME280;20331;53.144;8.208;2023-03-01T12:57:40;103087.13;;;6.38;73.50
29163;BME280;20331;53.144;8.208;2023-03-01T13:18:27;103062.75;;;6.58;73.16
29163;BME280;20331;53.144;8.208;2023-03-01T13:39:27;103027.44;;;6.91;73.84
29163;BME280;20331;53.144;8.208;2023-03-01T14:00:29;103017.47;;;7.06;74.31
29163;BME280;20331;53.144;8.208;2023-03-01T14:21:32;102973.09;;;7.20;73.82
29163;BME280;20331;53.144;8.208;2023-03-01T14:31:54;102961.16;;;7.25;73.27
29163;BME280;20331;53.144;8.208;2023-03-01T14:42:15;102951.06;;;7.37;74.15
29163;BME280;20331;53.144;8.208;2023-03-01T14:52:38;102940.94;;;7.46;73.48
29163;BME280;20331;53.144;8.208;2023-03-01T15:03:06;102934.94;;;7.45;74.84
29163;BME280;20331;53.144;8.208;2023-03-01T15:13:32;102922.16;;;7.53;74.57
29163;BME280;20331;53.144;8.208;2023-03-01T15:34:22;102896.50;;;7.59;74.30
29163;BME280;20331;53.144;8.208;2023-03-01T15:44:44;102893.09;;;7.60;75.35
29163;BME280;20331;53.144;8.208;2023-03-01T15:55:14;102882.88;;;7.66;75.23
29163;BME280;20331;53.144;8.208;2023-03-01T16:05:37;102878.06;;;7.88;74.99
29163;BME280;20331;53.144;8.208;2023-03-01T16:15:58;102873.41;;;7.63;75.01
29163;BME280;20331;53.144;8.208;2023-03-01T16:26:20;102883.50;;;7.51;75.38
29163;BME280;20331;53.144;8.208;2023-03-01T16:36:42;102871.31;;;7.40;75.43
29163;BME280;20331;53.144;8.208;2023-03-01T16:47:03;102885.72;;;7.29;76.37
29163;BME280;20331;53.144;8.208;2023-03-01T16:57:25;102893.06;;;7.07;77.64
29163;BME280;20331;53.144;8.208;2023-03-01T17:07:46;102883.22;;;6.85;79.62
29163;BME280;20331;53.144;8.208;2023-03-01T17:18:08;102904.09;;;6.56;82.28
29163;BME280;20331;53.144;8.208;2023-03-01T17:28:31;102915.56;;;6.30;83.11
29163;BME280;20331;53.144;8.208;2023-03-01T17:38:53;102918.56;;;6.10;84.52
29163;BME280;20331;53.144;8.208;2023-03-01T17:49:14;102932.69;;;5.92;84.03
29163;BME280;20331;53.144;8.208;2023-03-01T17:59:38;102950.91;;;5.67;84.48
29163;BME280;20331;53.144;8.208;2023-03-01T18:09:59;102958.97;;;5.48;85.36
29163;BME280;20331;53.144;8.208;2023-03-01T18:20:20;102967.78;;;5.25;86.39
29163;BME280;20331;53.144;8.208;2023-03-01T18:30:42;102964.94;;;5.14;87.37
29163;BME280;20331;53.144;8.208;2023-03-01T18:41:03;102975.00;;;5.06;88.04
29163;BME280;20331;53.144;8.208;2023-03-01T18:51:25;102974.06;;;5.03;87.64
29163;BME280;20331;53.144;8.208;2023-03-01T19:01:47;102972.94;;;4.93;88.74
29163;BME280;20331;53.144;8.208;2023-03-01T19:12:09;102971.91;;;4.87;89.04
29163;BME280;20331;53.144;8.208;2023-03-01T19:22:30;102986.25;;;4.80;89.04
29163;BME280;20331;53.144;8.208;2023-03-01T19:32:52;102982.03;;;4.54;88.87
29163;BME280;20331;53.144;8.208;2023-03-01T19:43:14;102984.56;;;4.53;89.72
29163;BME280;20331;53.144;8.208;2023-03-01T19:53:36;102982.00;;;4.53;89.11
29163;BME280;20331;53.144;8.208;2023-03-01T20:03:57;102988.84;;;4.52;89.31
29163;BME280;20331;53.144;8.208;2023-03-01T20:14:19;102990.50;;;4.50;87.97
29163;BME280;20331;53.144;8.208;2023-03-01T20:24:44;102980.25;;;4.50;88.40
29163;BME280;20331;53.144;8.208;2023-03-01T20:35:05;102985.78;;;4.36;87.78
29163;BME280;20331;53.144;8.208;2023-03-01T20:45:27;102993.13;;;4.25;87.82
29163;BME280;20331;53.144;8.208;2023-03-01T20:55:48;103004.84;;;4.17;87.25
29163;BME280;20331;53.144;8.208;2023-03-01T21:06:10;102996.91;;;4.09;87.57
29163;BME280;20331;53.144;8.208;2023-03-01T21:16:31;102997.59;;;4.04;88.03
29163;BME280;20331;53.144;8.208;2023-03-01T21:26:54;102994.31;;;4.08;87.94
29163;BME280;20331;53.144;8.208;2023-03-01T21:37:15;102989.06;;;4.05;87.86
29163;BME280;20331;53.144;8.208;2023-03-01T21:47:37;102994.47;;;3.86;88.08
29163;BME280;20331;53.144;8.208;2023-03-01T21:58:00;102985.72;;;3.81;88.54
29163;BME280;20331;53.144;8.208;2023-03-01T22:08:21;102985.66;;;3.78;89.04
29163;BME280;20331;53.144;8.208;2023-03-01T22:18:43;102969.66;;;3.85;88.36
29163;BME280;20331;53.144;8.208;2023-03-01T22:29:09;102972.19;;;3.83;89.07
29163;BME280;20331;53.144;8.208;2023-03-01T22:39:30;102966.00;;;3.77;89.00
29163;BME280;20331;53.144;8.208;2023-03-01T22:49:55;102967.53;;;3.72;89.60
29163;BME280;20331;53.144;8.208;2023-03-01T23:00:18;102970.06;;;3.72;89.92
29163;BME280;20331;53.144;8.208;2023-03-01T23:10:40;102981.25;;;3.74;89.78
29163;BME280;20331;53.144;8.208;2023-03-01T23:21:08;102983.63;;;3.68;90.05
29163;BME280;20331;53.144;8.208;2023-03-01T23:31:30;102980.94;;;3.65;90.00
29163;BME280;20331;53.144;8.208;2023-03-01T23:41:52;102968.06;;;3.62;90.58
29163;BME280;20331;53.144;8.208;2023-03-01T23:52:13;102958.63;;;3.61;90.35
